createdAt,value
2019-01-13T00:00:11.466Z,30.33
2019-01-13T00:02:37.320Z,29.67
2019-01-13T00:05:08.044Z,32.53
2019-01-13T00:07:38.249Z,33.17
2019-01-13T00:10:08.770Z,31.57
2019-01-13T00:12:38.964Z,32.20
2019-01-13T00:15:09.715Z,29.83
2019-01-13T00:17:39.990Z,30.57
2019-01-13T00:20:10.677Z,28.90
2019-01-13T00:22:41.181Z,29.43
2019-01-13T00:25:11.473Z,29.57
2019-01-13T00:27:42.841Z,26.03
2019-01-13T00:30:19.144Z,24.03
2019-01-13T00:32:46.237Z,24.10
2019-01-13T00:35:16.697Z,28.73
2019-01-13T00:37:46.922Z,28.77
2019-01-13T00:40:17.377Z,28.07
2019-01-13T00:42:47.631Z,28.90
2019-01-13T00:45:18.113Z,28.00
2019-01-13T00:47:48.409Z,28.17
2019-01-13T00:50:18.710Z,28.00
2019-01-13T00:52:48.908Z,29.33
2019-01-13T00:55:19.151Z,29.50
2019-01-13T00:57:49.433Z,28.50
2019-01-13T01:00:26.404Z,30.00
2019-01-13T01:02:53.732Z,28.57
2019-01-13T01:05:23.999Z,31.43
2019-01-13T01:07:54.436Z,31.50
2019-01-13T01:10:24.824Z,30.60
2019-01-13T01:12:55.232Z,31.77
2019-01-13T01:15:25.469Z,30.43
2019-01-13T01:17:55.798Z,33.13
2019-01-13T01:20:26.052Z,31.73
2019-01-13T01:22:56.292Z,30.87
2019-01-13T01:25:26.536Z,34.70
2019-01-13T01:27:56.812Z,32.27
2019-01-13T01:30:33.430Z,32.10
2019-01-13T01:32:59.857Z,37.43
2019-01-13T01:35:30.149Z,34.20
2019-01-13T01:38:00.384Z,34.73
2019-01-13T01:40:30.841Z,33.13
2019-01-13T01:43:01.078Z,31.10
2019-01-13T01:45:31.323Z,33.23
2019-01-13T01:48:01.659Z,31.53
2019-01-13T01:50:31.995Z,30.80
2019-01-13T01:53:02.360Z,31.93
2019-01-13T01:55:32.700Z,31.80
2019-01-13T01:58:02.957Z,31.93
2019-01-13T02:00:40.243Z,34.13
2019-01-13T02:03:05.302Z,33.43
2019-01-13T02:05:35.781Z,30.77
2019-01-13T02:08:06.273Z,31.50
2019-01-13T02:10:36.549Z,30.40
2019-01-13T02:13:06.845Z,28.07
2019-01-13T02:15:37.066Z,32.07
2019-01-13T02:18:07.341Z,32.07
2019-01-13T02:20:37.569Z,31.83
2019-01-13T02:23:07.851Z,34.00
2019-01-13T02:25:38.208Z,36.23
2019-01-13T02:28:08.444Z,35.70
2019-01-13T02:30:38.672Z,33.63
2019-01-13T02:33:10.086Z,30.47
2019-01-13T02:35:40.345Z,34.60
2019-01-13T02:38:10.604Z,34.47
2019-01-13T02:40:40.910Z,33.23
2019-01-13T02:43:11.054Z,33.40
2019-01-13T02:45:41.318Z,30.80
2019-01-13T02:48:11.777Z,31.97
2019-01-13T02:50:42.137Z,29.50
2019-01-13T02:53:12.431Z,30.27
2019-01-13T02:55:42.700Z,32.53
2019-01-13T02:58:12.973Z,34.57
2019-01-13T03:00:43.184Z,28.73
2019-01-13T03:03:13.486Z,31.33
2019-01-13T03:05:43.801Z,28.30
2019-01-13T03:08:14.047Z,28.33
2019-01-13T03:10:44.361Z,31.20
2019-01-13T03:13:14.617Z,31.07
2019-01-13T03:15:44.794Z,29.10
2019-01-13T03:18:15.124Z,28.30
2019-01-13T03:20:45.384Z,28.90
2019-01-13T03:23:15.622Z,29.30
2019-01-13T03:25:45.877Z,28.83
2019-01-13T03:28:16.122Z,28.40
2019-01-13T03:30:46.370Z,28.00
2019-01-13T03:33:17.704Z,29.47
2019-01-13T03:35:48.933Z,29.63
2019-01-13T03:38:19.156Z,30.00
2019-01-13T03:40:49.435Z,28.70
2019-01-13T03:43:19.730Z,32.93
2019-01-13T03:45:49.949Z,28.53
2019-01-13T03:48:20.422Z,28.43
2019-01-13T03:50:51.221Z,30.70
2019-01-13T03:53:21.680Z,29.90
2019-01-13T03:55:51.951Z,26.43
2019-01-13T03:58:22.182Z,31.03
2019-01-13T04:00:52.410Z,28.70
2019-01-13T04:03:22.686Z,30.30
2019-01-13T04:05:52.958Z,29.27
2019-01-13T04:08:23.145Z,30.13
2019-01-13T04:10:53.467Z,30.20
2019-01-13T04:13:23.695Z,32.90
2019-01-13T04:16:03.724Z,28.97
2019-01-13T04:18:33.973Z,26.57
2019-01-13T04:21:04.225Z,29.47
2019-01-13T04:23:34.481Z,32.60
2019-01-13T04:26:04.723Z,30.97
2019-01-13T04:28:34.923Z,29.80
2019-01-13T04:31:05.261Z,31.47
2019-01-13T04:33:35.538Z,30.63
2019-01-13T04:36:06.094Z,31.20
2019-01-13T04:38:37.478Z,30.90
2019-01-13T04:41:07.842Z,32.67
2019-01-13T04:43:38.161Z,32.73
2019-01-13T04:46:08.514Z,30.60
2019-01-13T04:48:38.769Z,32.20
2019-01-13T04:51:09.173Z,30.23
2019-01-13T04:53:39.461Z,32.13
2019-01-13T04:56:09.702Z,32.97
2019-01-13T04:58:40.022Z,32.17
2019-01-13T05:01:10.324Z,38.27
2019-01-13T05:03:40.435Z,34.97
2019-01-13T05:06:10.676Z,36.87
2019-01-13T05:08:40.936Z,33.33
2019-01-13T05:11:11.100Z,30.70
2019-01-13T05:13:41.509Z,33.47
2019-01-13T05:16:11.717Z,35.60
2019-01-13T05:18:41.982Z,34.40
2019-01-13T05:21:12.315Z,34.77
2019-01-13T05:23:47.778Z,36.07
2019-01-13T05:26:19.721Z,35.13
2019-01-13T05:28:52.210Z,35.30
2019-01-13T05:31:22.637Z,33.50
2019-01-13T05:33:53.109Z,32.83
2019-01-13T05:36:23.332Z,29.93
2019-01-13T05:38:53.661Z,36.77
2019-01-13T05:41:24.064Z,32.47
2019-01-13T05:43:54.459Z,35.00
2019-01-13T05:46:24.723Z,34.20
2019-01-13T05:48:55.016Z,34.83
2019-01-13T05:51:25.291Z,35.83
2019-01-13T05:53:56.451Z,34.67
2019-01-13T05:56:26.809Z,34.70
2019-01-13T05:58:57.070Z,36.47
2019-01-13T06:01:27.253Z,38.10
2019-01-13T06:03:57.588Z,35.30
2019-01-13T06:06:28.017Z,31.90
2019-01-13T06:08:59.113Z,33.33
2019-01-13T06:11:29.486Z,36.07
2019-01-13T06:13:59.824Z,32.93
2019-01-13T06:16:30.746Z,30.90
2019-01-13T06:19:01.554Z,30.73
2019-01-13T06:21:31.808Z,30.13
2019-01-13T06:24:01.911Z,32.20
2019-01-13T06:26:32.244Z,35.23
2019-01-13T06:29:02.497Z,34.47
2019-01-13T06:31:32.704Z,32.40
2019-01-13T06:34:02.969Z,33.33
2019-01-13T06:36:33.134Z,33.73
2019-01-13T06:39:03.877Z,33.27
2019-01-13T06:41:34.184Z,31.63
2019-01-13T06:44:04.600Z,33.67
2019-01-13T06:46:34.826Z,35.70
2019-01-13T06:49:05.361Z,38.13
2019-01-13T06:51:35.584Z,34.43
2019-01-13T06:54:05.981Z,38.07
2019-01-13T06:56:36.282Z,34.77
2019-01-13T06:59:06.559Z,36.77
2019-01-13T07:01:36.802Z,34.00
2019-01-13T07:04:07.067Z,33.87
2019-01-13T07:06:37.311Z,32.10
2019-01-13T07:09:08.798Z,30.30
2019-01-13T07:11:39.272Z,29.97
2019-01-13T07:14:09.511Z,29.00
2019-01-13T07:16:39.788Z,26.77
2019-01-13T07:19:10.115Z,28.27
2019-01-13T07:21:40.341Z,28.23
2019-01-13T07:24:10.639Z,27.23
2019-01-13T07:26:40.909Z,26.63
2019-01-13T07:29:12.935Z,29.33
2019-01-13T07:31:42.878Z,30.37
2019-01-13T07:34:13.079Z,28.73
2019-01-13T07:36:43.216Z,30.50
2019-01-13T07:39:13.415Z,31.50
2019-01-13T07:41:43.418Z,30.53
2019-01-13T07:44:13.545Z,30.97
2019-01-13T07:46:44.535Z,32.50
2019-01-13T07:49:14.530Z,31.07
2019-01-13T07:51:44.454Z,33.67
2019-01-13T07:54:14.445Z,32.03
2019-01-13T07:56:44.460Z,35.93
2019-01-13T07:59:14.444Z,35.53
2019-01-13T08:01:44.468Z,37.07
2019-01-13T08:04:14.472Z,36.13
2019-01-13T08:06:44.402Z,33.23
2019-01-13T08:09:15.444Z,32.73
2019-01-13T08:11:45.658Z,34.27
2019-01-13T08:14:16.784Z,31.93
2019-01-13T08:16:48.317Z,33.00
2019-01-13T08:19:19.141Z,31.40
2019-01-13T08:21:49.214Z,33.57
2019-01-13T08:24:19.234Z,36.23
2019-01-13T08:26:49.495Z,35.40
2019-01-13T08:29:19.409Z,34.07
2019-01-13T08:31:49.453Z,34.27
2019-01-13T08:34:19.439Z,33.93
2019-01-13T08:36:49.627Z,33.87
2019-01-13T08:39:19.837Z,32.37
2019-01-13T08:41:49.916Z,34.07
2019-01-13T08:44:19.971Z,34.43
2019-01-13T08:46:49.988Z,34.17
2019-01-13T08:49:21.315Z,34.10
2019-01-13T08:51:51.258Z,34.20
2019-01-13T08:54:21.418Z,34.57
2019-01-13T08:56:51.745Z,34.80
2019-01-13T08:59:22.117Z,34.23
2019-01-13T09:01:52.389Z,37.87
2019-01-13T09:04:22.721Z,37.97
2019-01-13T09:06:53.005Z,33.40
2019-01-13T09:09:22.916Z,36.57
2019-01-13T09:11:56.682Z,35.83
2019-01-13T09:14:26.621Z,41.87
2019-01-13T09:16:56.532Z,40.03
2019-01-13T09:19:26.497Z,37.63
2019-01-13T09:21:56.506Z,39.73
2019-01-13T09:24:26.570Z,43.77
2019-01-13T09:26:56.545Z,38.80
2019-01-13T09:29:26.469Z,38.70
2019-01-13T09:31:59.465Z,40.00
2019-01-13T09:34:29.566Z,38.90
2019-01-13T09:36:59.819Z,39.93
2019-01-13T09:39:29.953Z,38.97
2019-01-13T09:42:01.633Z,40.60
2019-01-13T09:44:31.813Z,40.70
2019-01-13T09:47:04.889Z,40.63
2019-01-13T09:49:36.947Z,39.20
2019-01-13T09:52:10.127Z,39.90
2019-01-13T09:54:42.264Z,41.80
2019-01-13T09:57:14.551Z,36.30
2019-01-13T09:59:46.366Z,40.57
2019-01-13T10:02:16.504Z,39.50
2019-01-13T10:04:46.642Z,38.47
2019-01-13T10:07:16.954Z,40.00
2019-01-13T10:09:46.869Z,41.47
2019-01-13T10:12:16.869Z,44.23
2019-01-13T10:14:46.903Z,43.20
2019-01-13T10:17:16.834Z,42.50
2019-01-13T10:19:46.938Z,40.93
2019-01-13T10:22:16.991Z,43.93
2019-01-13T10:24:46.929Z,41.53
2019-01-13T10:27:16.956Z,43.43
2019-01-13T10:29:46.893Z,44.60
2019-01-13T10:32:17.078Z,41.17
2019-01-13T10:34:50.198Z,39.90
2019-01-13T10:37:20.374Z,39.03
2019-01-13T10:39:50.707Z,41.13
2019-01-13T10:42:20.943Z,41.60
2019-01-13T10:44:51.111Z,41.10
2019-01-13T10:47:21.041Z,41.60
2019-01-13T10:49:51.060Z,44.63
2019-01-13T10:52:20.962Z,42.63
2019-01-13T10:54:52.017Z,44.20
2019-01-13T10:57:22.011Z,42.43
2019-01-13T10:59:52.056Z,41.37
2019-01-13T11:02:22.124Z,41.43
2019-01-13T11:04:52.144Z,43.20
2019-01-13T11:07:22.714Z,42.57
2019-01-13T11:09:52.638Z,42.73
2019-01-13T11:12:22.613Z,42.93
2019-01-13T11:14:52.547Z,41.77
2019-01-13T11:17:22.466Z,42.17
2019-01-13T11:19:52.479Z,44.10
2019-01-13T11:22:22.419Z,41.47
2019-01-13T11:24:52.360Z,43.60
2019-01-13T11:27:22.374Z,43.17
2019-01-13T11:29:52.338Z,45.07
2019-01-13T11:32:22.251Z,42.97
2019-01-13T11:34:52.350Z,48.27
2019-01-13T11:37:22.402Z,46.27
2019-01-13T11:39:52.506Z,47.40
2019-01-13T11:42:22.582Z,46.73
2019-01-13T11:44:52.638Z,45.37
2019-01-13T11:47:22.758Z,45.93
2019-01-13T11:49:52.759Z,44.33
2019-01-13T11:52:22.669Z,49.40
2019-01-13T11:54:52.712Z,47.17
2019-01-13T11:57:24.052Z,46.93
2019-01-13T11:59:53.989Z,42.30
2019-01-13T12:02:23.914Z,44.37
2019-01-13T12:04:53.920Z,44.80
2019-01-13T12:07:23.956Z,46.87
2019-01-13T12:09:53.895Z,42.77
2019-01-13T12:12:23.922Z,42.73
2019-01-13T12:14:53.838Z,49.90
2019-01-13T12:17:23.774Z,45.30
2019-01-13T12:19:53.872Z,46.30
2019-01-13T12:22:23.844Z,43.73
2019-01-13T12:24:53.767Z,45.60
2019-01-13T12:27:23.776Z,48.30
2019-01-13T12:29:53.731Z,46.97
2019-01-13T12:32:23.695Z,46.90
2019-01-13T12:34:53.661Z,42.70
2019-01-13T12:37:23.623Z,45.70
2019-01-13T12:39:53.540Z,47.97
2019-01-13T12:42:23.631Z,45.60
2019-01-13T12:44:53.568Z,47.27
2019-01-13T12:47:23.491Z,51.77
2019-01-13T12:49:53.481Z,52.73
2019-01-13T12:52:23.477Z,47.53
2019-01-13T12:54:53.456Z,48.13
2019-01-13T12:57:23.474Z,47.27
2019-01-13T12:59:53.517Z,43.17
2019-01-13T13:02:23.450Z,74.80
2019-01-13T13:04:53.466Z,44.47
2019-01-13T13:07:23.501Z,45.33
2019-01-13T13:09:53.458Z,47.17
2019-01-13T13:12:23.467Z,43.63
2019-01-13T13:14:53.422Z,46.20
2019-01-13T13:17:23.392Z,43.80
2019-01-13T13:19:53.369Z,44.53
2019-01-13T13:22:23.426Z,44.03
2019-01-13T13:24:53.505Z,43.70
2019-01-13T13:27:23.833Z,45.00
2019-01-13T13:29:53.796Z,51.23
2019-01-13T13:32:23.723Z,47.45
2019-01-13T13:34:53.705Z,41.50
2019-01-13T13:37:23.625Z,45.10
2019-01-13T13:39:53.702Z,41.57
2019-01-13T13:42:24.466Z,40.63
2019-01-13T13:44:54.443Z,41.20
2019-01-13T13:47:24.359Z,44.00
2019-01-13T13:49:54.377Z,44.53
2019-01-13T13:52:24.681Z,47.53
2019-01-13T13:54:54.650Z,55.40
2019-01-13T13:57:25.395Z,39.20
2019-01-13T13:59:58.103Z,40.10
2019-01-13T14:02:29.592Z,38.33
2019-01-13T14:04:59.538Z,39.83
2019-01-13T14:07:29.717Z,39.67
2019-01-13T14:10:00.043Z,37.80
2019-01-13T14:12:29.965Z,39.13
2019-01-13T14:14:59.985Z,39.40
2019-01-13T14:17:29.950Z,38.00
2019-01-13T14:19:59.904Z,40.00
2019-01-13T14:22:29.818Z,38.87
2019-01-13T14:24:59.816Z,40.97
2019-01-13T14:27:29.774Z,39.60
2019-01-13T14:29:59.682Z,37.17
2019-01-13T14:32:29.663Z,39.53
2019-01-13T14:34:59.692Z,39.33
2019-01-13T14:37:29.610Z,37.63
2019-01-13T14:39:59.605Z,37.10
2019-01-13T14:42:29.530Z,38.43
2019-01-13T14:44:59.496Z,38.30
2019-01-13T14:47:29.523Z,38.93
2019-01-13T14:49:59.742Z,37.37
2019-01-13T14:52:29.670Z,37.80
2019-01-13T14:54:59.668Z,38.40
2019-01-13T14:57:29.645Z,37.57
2019-01-13T14:59:59.638Z,36.93
2019-01-13T15:02:31.369Z,39.77
2019-01-13T15:05:01.314Z,39.90
2019-01-13T15:07:31.245Z,38.63
2019-01-13T15:10:01.314Z,38.30
2019-01-13T15:12:31.206Z,38.83
2019-01-13T15:15:01.212Z,40.30
2019-01-13T15:17:31.917Z,39.57
2019-01-13T15:20:01.843Z,38.03
2019-01-13T15:22:31.817Z,42.03
2019-01-13T15:25:01.811Z,39.13
2019-01-13T15:27:31.719Z,38.53
2019-01-13T15:30:02.306Z,41.63
2019-01-13T15:32:32.310Z,44.13
2019-01-13T15:35:02.251Z,40.83
2019-01-13T15:37:32.197Z,39.27
2019-01-13T15:40:02.527Z,39.70
2019-01-13T15:42:32.503Z,40.20
2019-01-13T15:45:02.497Z,39.83
2019-01-13T15:47:32.504Z,39.17
2019-01-13T15:50:02.549Z,38.70
2019-01-13T15:52:32.477Z,42.37
2019-01-13T15:55:02.776Z,40.90
2019-01-13T15:57:33.193Z,41.37
2019-01-13T16:00:03.202Z,38.83
2019-01-13T16:02:33.196Z,45.40
2019-01-13T16:05:03.361Z,47.07
2019-01-13T16:07:36.281Z,46.03
2019-01-13T16:10:09.604Z,42.57
2019-01-13T16:12:39.698Z,45.77
2019-01-13T16:15:10.653Z,45.80
2019-01-13T16:17:41.020Z,48.10
2019-01-13T16:20:14.752Z,42.37
2019-01-13T16:22:44.788Z,43.03
2019-01-13T16:25:14.712Z,43.27
2019-01-13T16:27:44.773Z,47.60
2019-01-13T16:30:18.012Z,43.37
2019-01-13T16:32:48.177Z,49.27
2019-01-13T16:35:18.297Z,52.20
2019-01-13T16:37:48.544Z,50.63
2019-01-13T16:40:20.713Z,51.93
2019-01-13T16:42:50.962Z,53.20
2019-01-13T16:45:21.277Z,51.93
2019-01-13T16:47:51.542Z,50.80
2019-01-13T16:50:23.661Z,54.27
2019-01-13T16:52:55.476Z,50.57
2019-01-13T16:55:26.507Z,48.63
2019-01-13T16:57:57.110Z,53.67
2019-01-13T17:00:29.334Z,48.77
2019-01-13T17:02:59.609Z,50.73
2019-01-13T17:05:31.907Z,52.20
2019-01-13T17:08:02.362Z,53.80
2019-01-13T17:10:32.584Z,72.07
2019-01-13T17:13:02.744Z,66.73
2019-01-13T17:15:34.874Z,61.90
2019-01-13T17:18:05.426Z,54.77
2019-01-13T17:20:35.794Z,69.07
2019-01-13T17:23:06.226Z,55.47
2019-01-13T17:25:36.478Z,49.37
2019-01-13T17:28:06.717Z,48.23
2019-01-13T17:30:37.722Z,48.97
2019-01-13T17:33:08.389Z,45.90
2019-01-13T17:35:38.610Z,50.00
2019-01-13T17:38:08.971Z,47.17
2019-01-13T17:40:39.248Z,46.13
2019-01-13T17:43:09.512Z,45.23
2019-01-13T17:45:39.863Z,45.13
2019-01-13T17:48:10.548Z,46.07
2019-01-13T17:50:40.758Z,54.10
2019-01-13T17:53:11.741Z,51.17
2019-01-13T17:55:41.677Z,54.47
2019-01-13T17:58:12.279Z,58.30
2019-01-13T18:00:54.815Z,62.00
2019-01-13T18:03:32.441Z,60.90
2019-01-13T18:06:03.319Z,54.70
2019-01-13T18:08:33.755Z,51.33
2019-01-13T18:11:03.980Z,50.63
2019-01-13T18:13:34.262Z,53.50
2019-01-13T18:16:04.726Z,50.93
2019-01-13T18:18:34.996Z,53.03
2019-01-13T18:21:05.300Z,51.97
2019-01-13T18:23:35.415Z,45.90
2019-01-13T18:26:05.735Z,43.50
2019-01-13T18:28:36.029Z,45.90
2019-01-13T18:31:06.404Z,41.57
2019-01-13T18:33:36.654Z,42.00
2019-01-13T18:36:07.190Z,41.50
2019-01-13T18:38:37.456Z,39.10
2019-01-13T18:41:07.683Z,38.93
2019-01-13T18:43:38.001Z,40.73
2019-01-13T18:46:08.256Z,42.70
2019-01-13T18:48:38.452Z,40.13
2019-01-13T18:51:08.742Z,43.00
2019-01-13T18:53:39.034Z,40.63
2019-01-13T18:56:09.240Z,43.37
2019-01-13T18:58:39.497Z,42.47
2019-01-13T19:01:09.920Z,40.47
2019-01-13T19:03:40.210Z,41.43
2019-01-13T19:06:10.503Z,36.87
2019-01-13T19:08:40.830Z,39.10
2019-01-13T19:11:40.357Z,41.20
2019-01-13T19:14:24.653Z,41.07
2019-01-13T19:17:03.690Z,42.60
2019-01-13T19:19:52.046Z,41.37
2019-01-13T19:22:22.569Z,41.10
2019-01-13T19:25:01.084Z,38.33
2019-01-13T19:27:31.425Z,37.00
2019-01-13T19:30:01.766Z,38.87
2019-01-13T19:32:32.050Z,39.37
2019-01-13T19:35:04.729Z,39.60
2019-01-13T19:37:34.248Z,36.27
2019-01-13T19:40:05.863Z,38.43
2019-01-13T19:42:36.036Z,35.47
2019-01-13T19:45:07.089Z,36.47
2019-01-13T19:47:37.575Z,37.20
2019-01-13T19:50:09.765Z,37.23
2019-01-13T19:52:39.993Z,37.10
2019-01-13T19:55:12.359Z,37.20
2019-01-13T19:57:42.612Z,35.30
2019-01-13T20:00:22.337Z,36.77
2019-01-13T20:02:52.784Z,33.20
2019-01-13T20:05:23.003Z,35.10
2019-01-13T20:07:53.318Z,35.03
2019-01-13T20:10:23.689Z,35.30
2019-01-13T20:12:54.054Z,32.87
2019-01-13T20:15:24.566Z,31.33
2019-01-13T20:17:54.848Z,31.93
2019-01-13T20:20:25.126Z,33.47
2019-01-13T20:22:55.381Z,32.33
2019-01-13T20:25:25.589Z,29.77
2019-01-13T20:27:55.812Z,28.50
2019-01-13T20:30:29.065Z,27.50
2019-01-13T20:32:59.338Z,26.73
2019-01-13T20:35:29.664Z,25.27
2019-01-13T20:37:59.929Z,25.43
2019-01-13T20:40:30.277Z,28.10
2019-01-13T20:43:00.498Z,28.10
2019-01-13T20:45:35.928Z,26.03
2019-01-13T20:48:08.102Z,25.83
2019-01-13T20:50:38.368Z,26.33
2019-01-13T20:53:08.646Z,23.50
2019-01-13T20:55:38.892Z,25.77
2019-01-13T20:58:09.130Z,25.67
2019-01-13T21:00:39.515Z,22.80
2019-01-13T21:03:09.779Z,21.40
2019-01-13T21:05:39.980Z,19.63
2019-01-13T21:08:10.251Z,20.63
2019-01-13T21:10:40.531Z,21.13
2019-01-13T21:13:10.938Z,20.00
2019-01-13T21:15:41.225Z,20.57
2019-01-13T21:18:11.478Z,21.63
2019-01-13T21:20:41.740Z,21.40
2019-01-13T21:23:11.970Z,19.60
2019-01-13T21:25:42.270Z,21.60
2019-01-13T21:28:12.566Z,18.43
2019-01-13T21:30:42.879Z,18.53
2019-01-13T21:33:13.157Z,17.90
2019-01-13T21:35:43.608Z,17.33
2019-01-13T21:38:13.897Z,16.63
2019-01-13T21:40:44.195Z,16.90
2019-01-13T21:43:14.504Z,16.00
2019-01-13T21:45:44.831Z,14.80
2019-01-13T21:48:15.225Z,15.27
2019-01-13T21:50:45.500Z,16.27
2019-01-13T21:53:15.789Z,16.13
2019-01-13T21:55:46.048Z,15.60
2019-01-13T21:58:16.248Z,14.10
2019-01-13T22:00:46.546Z,14.10
2019-01-13T22:03:16.814Z,14.23
2019-01-13T22:05:47.000Z,14.70
2019-01-13T22:08:17.290Z,15.10
2019-01-13T22:10:47.596Z,15.33
2019-01-13T22:13:17.821Z,15.60
2019-01-13T22:15:48.320Z,15.37
2019-01-13T22:18:18.506Z,14.43
2019-01-13T22:20:48.742Z,15.27
2019-01-13T22:23:19.069Z,15.10
2019-01-13T22:25:49.249Z,16.23
2019-01-13T22:28:19.530Z,14.90
2019-01-13T22:30:49.802Z,17.30
2019-01-13T22:33:20.057Z,17.47
2019-01-13T22:35:50.321Z,18.67
2019-01-13T22:38:20.777Z,18.13
2019-01-13T22:40:51.009Z,18.93
2019-01-13T22:43:21.281Z,17.37
2019-01-13T22:45:51.569Z,18.10
2019-01-13T22:48:21.967Z,17.37
2019-01-13T22:50:52.413Z,17.67
2019-01-13T22:53:22.713Z,14.70
2019-01-13T22:55:52.993Z,14.53
2019-01-13T22:58:23.220Z,14.30
2019-01-13T23:01:24.614Z,14.87
2019-01-13T23:03:55.350Z,13.40
2019-01-13T23:06:25.613Z,12.43
2019-01-13T23:08:55.891Z,12.60
2019-01-13T23:11:26.066Z,12.13
2019-01-13T23:13:56.257Z,12.73
2019-01-13T23:16:26.521Z,12.27
2019-01-13T23:18:56.833Z,11.73
2019-01-13T23:21:27.157Z,10.90
2019-01-13T23:23:57.414Z,11.97
2019-01-13T23:26:27.670Z,11.03
2019-01-13T23:28:58.072Z,11.07
2019-01-13T23:31:28.423Z,11.40
2019-01-13T23:33:58.685Z,11.90
2019-01-13T23:36:28.870Z,12.47
2019-01-13T23:38:59.168Z,12.40
2019-01-13T23:41:29.452Z,11.57
2019-01-13T23:43:59.763Z,10.70
2019-01-13T23:46:29.997Z,11.10
2019-01-13T23:49:02.528Z,10.47
2019-01-13T23:51:32.901Z,8.70
2019-01-13T23:54:03.478Z,9.33
2019-01-13T23:56:33.685Z,8.73
2019-01-13T23:59:03.998Z,9.23
